Crooked Creek Research Lab Weather observations

Data are for 10 minute period ending at time listed.
 Day   Time    Ave.   Ave.  Ave.  Vector   Max.   Stn.    Total    Solar   Ave.   Snow 
  of    of     Air    Rel.  Wind   Wind    Wind   Baro.  Precip.   Rad.    Soil   Depth
Year   Day     Temp.  Hum.  Speed  Dir.    Gust   Pres.                    Temp.       
2015   (PST)    F      %     mph   deg.    mph     mb.     in.     W/m2     F      in. 
---------------------------------------------------------------------------------------  
 186    0:00   42.5    87    0.3   244      2.0   705.7    0.00       0    999.0    -0.7
 186    0:10   43.1    84    0.9   208      4.1   705.7    0.00       0    999.0    -0.6
 186    0:20   44.1    80    2.4   212      6.4   705.7    0.00       0    999.0    -0.6
 186    0:30   44.9    78    1.7   207      3.8   705.5    0.00       0    999.0    -0.7
 186    0:40   45.6    75    2.5   187      5.7   705.7    0.00       0    999.0    -0.6
 186    0:50   46.4    72    1.4   195      5.3   705.5    0.00       0    999.0    -0.7
 186    1:00   47.9    68    2.0   161      4.8   705.5    0.00       0    999.0    -0.7
 186    1:10   47.7    69    1.1   168      3.4   705.5    0.00       0    999.0    -0.7
 186    1:20   47.2    70    1.7   207      4.5   705.5    0.00       0    999.0    -0.6
 186    1:30   46.7    71    2.6   230      6.2   705.5    0.00       0    999.0    -0.7
 186    1:40   45.8    73    2.3   203      5.0   705.4    0.00       0    999.0    -0.7
 186    1:50   45.9    73    2.7   235      5.1   705.4    0.00       0    999.0    -0.7
 186    2:00   45.7    72    2.5   241      5.0   705.4    0.00       0    999.0    -0.7
 186    2:10   46.0    71    1.7   213      4.3   705.4    0.00       0    999.0    -0.8
 186    2:20  999.0   999  999.0   999    999.0   999.0   999.00     999    999.0   999.0
 186    2:30  999.0   999  999.0   999    999.0   999.0   999.00     999    999.0   999.0
 186    2:40  999.0   999  999.0   999    999.0   999.0   999.00     999    999.0   999.0
 186    2:50  999.0   999  999.0   999    999.0   999.0   999.00     999    999.0   999.0
 186    3:00  999.0   999  999.0   999    999.0   999.0   999.00     999    999.0   999.0
 186    3:10  999.0   999  999.0   999    999.0   999.0   999.00     999    999.0   999.0
 186    3:20  999.0   999  999.0   999    999.0   999.0   999.00     999    999.0   999.0
 186    3:30  999.0   999  999.0   999    999.0   999.0   999.00     999    999.0   999.0
 186    3:40  999.0   999  999.0   999    999.0   999.0   999.00     999    999.0   999.0
 186    3:50  999.0   999  999.0   999    999.0   999.0   999.00     999    999.0   999.0
 186    4:00  999.0   999  999.0   999    999.0   999.0   999.00     999    999.0   999.0
 186    4:10  999.0   999  999.0   999    999.0   999.0   999.00     999    999.0   999.0
 186    4:20  999.0   999  999.0   999    999.0   999.0   999.00     999    999.0   999.0
 186    4:30  999.0   999  999.0   999    999.0   999.0   999.00     999    999.0   999.0
 186    4:40  999.0   999  999.0   999    999.0   999.0   999.00     999    999.0   999.0
 186    4:50  999.0   999  999.0   999    999.0   999.0   999.00     999    999.0   999.0
 186    5:00  999.0   999  999.0   999    999.0   999.0   999.00     999    999.0   999.0
 186    5:10  999.0   999  999.0   999    999.0   999.0   999.00     999    999.0   999.0
 186    5:20  999.0   999  999.0   999    999.0   999.0   999.00     999    999.0   999.0
 186    5:30  999.0   999  999.0   999    999.0   999.0   999.00     999    999.0   999.0
 186    5:40  999.0   999  999.0   999    999.0   999.0   999.00     999    999.0   999.0
 186    5:50  999.0   999  999.0   999    999.0   999.0   999.00     999    999.0   999.0
 186    6:00  999.0   999  999.0   999    999.0   999.0   999.00     999    999.0   999.0
 186    6:10  999.0   999  999.0   999    999.0   999.0   999.00     999    999.0   999.0
 186    6:20  999.0   999  999.0   999    999.0   999.0   999.00     999    999.0   999.0
 186    6:30  999.0   999  999.0   999    999.0   999.0   999.00     999    999.0   999.0
 186    6:40  999.0   999  999.0   999    999.0   999.0   999.00     999    999.0   999.0
 186    6:50  999.0   999  999.0   999    999.0   999.0   999.00     999    999.0   999.0
 186    7:00  999.0   999  999.0   999    999.0   999.0   999.00     999    999.0   999.0
 186    7:10  999.0   999  999.0   999    999.0   999.0   999.00     999    999.0   999.0
 186    7:20  999.0   999  999.0   999    999.0   999.0   999.00     999    999.0   999.0
 186    7:30  999.0   999  999.0   999    999.0   999.0   999.00     999    999.0   999.0
 186    7:40  999.0   999  999.0   999    999.0   999.0   999.00     999    999.0   999.0
 186    7:50  999.0   999  999.0   999    999.0   999.0   999.00     999    999.0   999.0
 186    8:00  999.0   999  999.0   999    999.0   999.0   999.00     999    999.0   999.0
 186    8:10  -64.2    -7   13.8     0     13.8   600.0    0.00      13    999.0     0.0
 186    8:20   58.6    42    4.7   235     11.0   706.8    0.00     638    999.0    -0.5
 186    8:30   58.8    42    4.9   222     11.1   707.0    0.00     665    999.0    -0.7
 186    8:40   58.9    42    4.2   214     13.3   706.9    0.00     692    999.0    -0.6
 186    8:50   59.7    41    5.0   230     11.3   706.9    0.00     717    999.0    -0.7
 186    9:00   59.8    41    4.4   198     13.4   707.0    0.00     744    999.0    -0.6
 186    9:10   60.2    39    5.2   197     13.2   706.9    0.00     766    999.0    -0.6
 186    9:20   60.2    40    4.5   184     14.0   706.9    0.00     789    999.0    -0.6
 186    9:30   60.8    39    4.4   189     14.8   707.0    0.00     810    999.0    -0.7
 186    9:40   61.1    39    5.8   232     13.9   707.0    0.00     829    999.0    -0.6
 186    9:50   61.2    39    5.5   171     13.6   707.2    0.00     849    999.0    -0.6
 186   10:00   62.0    39    4.8   136     10.8   707.1    0.00     867    999.0    -0.6
 186   10:10   62.5    39    4.8   203     13.7   707.2    0.00     882    999.0    -0.7
 186   10:20   62.9    38    3.7   201     10.4   707.2    0.00     909    999.0    -0.7
 186   10:30   62.7    36    5.4   248     10.1   707.3    0.00     922    999.0    -0.6
 186   10:40   61.8    38    5.1   255     12.2   707.3    0.00     875    999.0    -0.6
 186   10:50   62.1    38    5.1   255     14.5   707.3    0.00     874    999.0    -0.5
 186   11:00   62.3    36    8.3   271     14.9   707.3    0.00     778    999.0    -0.7
 186   11:10   61.2    38    7.3   272     12.6   707.3    0.00     631    999.0    -0.5
 186   11:20   60.6    39    6.3   272     12.3   707.3    0.00     462    999.0    -0.6
 186   11:30   60.5    38    4.5   286      9.8   707.3    0.00     390    999.0    -0.6
 186   11:40   60.8    38    3.7   257     13.3   707.3    0.00     447    999.0    -0.5
 186   11:50   61.3    36    5.8   261     12.1   707.2    0.00     553    999.0    -0.5
 186   12:00   61.2    34    3.8   295     10.8   707.2    0.00     308    999.0    -0.7
 186   12:10   60.9    37    4.8   265     14.9   707.1    0.00     384    999.0    -0.6
 186   12:20   61.0    36    4.5   260     11.5   707.0    0.00     567    999.0    -0.5
 186   12:30   63.1    36    5.5   277     10.7   707.1    0.00     629    999.0    -0.5
 186   12:40   63.9    34    5.0   239     13.2   707.0    0.00    1050    999.0    -0.6
 186   12:50   64.7    34    3.3   159      9.3   706.8    0.00     771    999.0    -0.7
 186   13:00   63.1    39    5.1   148      9.3   707.2    0.00     539    999.0    -0.6
 186   13:10   60.4    47    3.2   147      8.3   706.9    0.00     168    999.0    -0.6
 186   13:20   59.5    48    2.4   125      6.3   706.6    0.00     136    999.0    -0.6
 186   13:30   59.5    48    2.5   156      7.5   706.7    0.00     110    999.0    -0.6
 186   13:40   59.6    44    4.1   183     10.5   706.6    0.00      70    999.0    -0.5
 186   13:50   59.5    46    6.2   233     16.2   706.7    0.00      70    999.0    -0.6
 186   14:00   57.4    55    5.8   186     14.7   706.7    0.00      74    999.0    -0.7
 186   14:10   56.0    51    5.3   163     12.3   706.9    0.00      58    999.0    -0.6
 186   14:20   55.7    55    3.8   187      7.5   706.8    0.00      40    999.0    -0.7
 186   14:30   54.7    62    4.5   140     12.1   706.9    0.00      57    999.0    -0.7
 186   14:40   53.3    65    6.1   141     12.5   706.8    0.00     158    999.0    -0.6
 186   14:50   53.7    54    5.3   139     10.4   706.9    0.00     272    999.0    -0.6
 186   15:00   54.1    50    3.9   112      9.7   706.8    0.00     213    999.0    -0.6
 186   15:10   54.7    50    3.1    46      5.5   707.0    0.00     203    999.0    -0.7
 186   15:20   55.5    50    2.3   328      5.1   707.0    0.00     243    999.0    -0.6
 186   15:30   56.6    46    1.8   318      5.8   706.9    0.00     230    999.0    -0.6
 186   15:40   57.0    44    3.8    81      8.6   706.8    0.00     251    999.0    -0.7
 186   15:50   57.8    44    5.1    52     11.2   706.9    0.00     421    999.0    -0.6
 186   16:00   58.4    42    4.9    38      8.9   707.0    0.00     414    999.0    -0.7
 186   16:10   57.9    43    4.5    38      8.0   707.1    0.00     310    999.0    -0.7
 186   16:20   57.3    44    4.1    44      9.4   707.4    0.00     216    999.0    -0.7
 186   16:30   56.8    46    5.4    42     12.7   707.2    0.00     179    999.0    -0.7
 186   16:40   55.6    46    6.1    42     10.4   707.2    0.00     129    999.0    -0.7
 186   16:50   55.0    50    4.7    40     10.3   707.1    0.00     140    999.0    -0.8
 186   17:00   54.7    52    5.9    41     14.7   707.1    0.00     275    999.0    -0.7
 186   17:10   55.9    51    6.8    34     14.5   707.1    0.00     410    999.0    -0.7
 186   17:20   56.3    52    4.4    21     10.0   707.2    0.00     286    999.0    -0.8
 186   17:30   55.4    53    6.7   332     11.1   707.1    0.00     271    999.0    -0.7
 186   17:40   55.8    52    4.6   336     10.7   707.2    0.00     326    999.0    -0.6
 186   17:50   57.3    48    3.4   354      8.3   707.4    0.00     221    999.0    -0.8
 186   18:00   56.1    49    3.4    29     11.8   707.4    0.00     120    999.0    -0.7
 186   18:10   55.6    50    3.9    32      9.7   707.4    0.00     117    999.0    -0.7
 186   18:20   55.5    51    1.8   346      4.6   707.2    0.00      94    999.0    -0.7
 186   18:30   55.5    48    1.7    32      3.8   707.2    0.00      84    999.0    -0.7
 186   18:40   55.5    47    2.1    28      4.3   707.4    0.00      66    999.0    -0.7
 186   18:50   55.1    48    1.7    45      4.5   707.4    0.00      42    999.0    -0.7
 186   19:00   53.2    56    4.7    30      9.6   707.5    0.00      23    999.0    -0.7
 186   19:10   51.3    61    2.8    55      7.1   707.4    0.00      14    999.0    -0.7
 186   19:20   50.7    62    2.9    63      6.8   707.3    0.00       9    999.0    -0.6
 186   19:30   50.3    65    1.7    56      3.4   707.5    0.00       3    999.0    -0.6
 186   19:40   49.2    67    1.3   239      2.9   707.3    0.00       0    999.0    -0.7
 186   19:50   48.1    70    1.2   208      2.7   707.4    0.00       0    999.0    -0.7
 186   20:00   47.4    73    1.2   104      2.7   707.4    0.00       0    999.0    -0.7
 186   20:10   46.3    76    1.0   242      2.3   707.4    0.00       0    999.0    -0.7
 186   20:20   46.4    75    0.0   240      0.1   707.5    0.00       0    999.0    -0.6
 186   20:30   46.2    75    1.3   168      2.3   707.6    0.00       0    999.0    -0.7
 186   20:40   45.3    77    0.3   228      2.0   707.7    0.00       0    999.0    -0.6
 186   20:50   45.4    74    1.9   250      3.9   707.8    0.00       0    999.0    -0.7
 186   21:00   44.2    77    0.8   169      1.7   707.7    0.00       0    999.0    -0.7
 186   21:10   43.8    77    1.4   188      4.4   707.8    0.00       0    999.0    -0.7
 186   21:20   43.4    76    1.5   223      3.7   707.8    0.00       0    999.0    -0.7
 186   21:30   42.9    75    0.3   220      2.1   707.8    0.00       0    999.0    -0.7
 186   21:40   42.5    76    0.8   219      3.0   707.8    0.00       0    999.0    -0.7
 186   21:50   42.8    73    1.3   168      3.2   707.9    0.00       0    999.0    -0.7
 186   22:00   42.0    74    2.8   234      5.1   707.8    0.00       0    999.0    -0.7
 186   22:10   41.7    74    2.6   181      4.7   707.7    0.00       0    999.0    -0.7
 186   22:20   41.1    76    1.9   227      3.8   707.8    0.00       0    999.0    -0.7
 186   22:30   40.9    76    2.6   225      5.1   707.7    0.00       0    999.0    -0.6

Return to Crooked Creek Research Lab graphs page.


Western Regional Climate Center,wrcc@dri.edu